LFSB/MLH METAR and TAF weather

Enter ICAO airport designator
Station Type Date Time Source
LFSB METAR 2022/12/05 15:30 UTC NOAA

LFSB 051530Z AUTO 32002KT 9999 FEW021 SCT062 BKN076 05/03 Q1019 NOSIG


Station Type Date Time Source
LFSB Decoded METAR 2022/12/05 15:30 UTC NOAA

Bale-Mulhouse, France (LFSB) 47-36N 007-31E 271M
Dec 05, 2022 - 10:30 AM EST / 2022.12.05 1530 UTC
Wind: from the NW (320 degrees) at 2 MPH (2 KT):0
Visibility: greater than 7 mile(s):0
Sky conditions: mostly cloudy
Temperature: 41 F (5 C)
Dew Point: 37 F (3 C)
Relative Humidity: 86%
Pressure (altimeter): 30.09 in. Hg (1019 hPa)
ob: LFSB 051530Z AUTO 32002KT 9999 FEW021 SCT062 BKN076 05/03 Q1019 NOSIG
cycle: 15

Station Type Date Time Source
LFSB TAF 2022/12/05 12:42 UTC NOAA

TAF LFSB 051100Z 0512/0612 VRB03KT 9999 SCT040
BECMG 0518/0521 3000 BR
BECMG 0523/0602 0800 FG BKN001 PROB40
TEMPO 0602/0608 0200 VV///
BECMG 0608/0611 3000 BR BKN005

Example: see airport list